createdAt,value
2024-02-29T00:01:38.100Z,22.30
2024-02-29T00:04:08.752Z,24.60
2024-02-29T00:06:39.988Z,21.80
2024-02-29T00:09:10.524Z,25.30
2024-02-29T00:11:41.350Z,20.20
2024-02-29T00:14:12.295Z,20.50
2024-02-29T00:16:44.141Z,25.10
2024-02-29T00:19:15.324Z,25.80
2024-02-29T00:21:46.784Z,27.40
2024-02-29T00:24:17.860Z,27.60
2024-02-29T00:26:49.439Z,28.10
2024-02-29T00:29:20.014Z,25.50
2024-02-29T00:31:50.984Z,27.50
2024-02-29T00:34:21.753Z,25.20
2024-02-29T00:36:52.616Z,27.20
2024-02-29T00:39:23.265Z,22.50
2024-02-29T00:41:54.137Z,24.00
2024-02-29T00:44:24.840Z,27.50
2024-02-29T00:46:55.387Z,27.30
2024-02-29T00:49:26.121Z,27.00
2024-02-29T00:51:56.892Z,30.10
2024-02-29T00:54:27.557Z,27.10
2024-02-29T00:56:58.331Z,32.10
2024-02-29T00:59:28.920Z,32.10
2024-02-29T01:01:59.668Z,33.00
2024-02-29T01:04:30.392Z,30.30
2024-02-29T01:07:01.068Z,32.40
2024-02-29T01:09:31.646Z,32.50
2024-02-29T01:12:02.202Z,27.00
2024-02-29T01:14:32.818Z,32.20
2024-02-29T01:17:03.576Z,31.00
2024-02-29T01:19:34.465Z,31.80
2024-02-29T01:22:05.244Z,34.50
2024-02-29T01:24:36.337Z,36.70
2024-02-29T01:27:07.806Z,39.60
2024-02-29T01:29:39.978Z,31.90
2024-02-29T01:32:18.629Z,36.70
2024-02-29T01:34:53.427Z,33.70
2024-02-29T01:37:24.041Z,38.40
2024-02-29T01:39:54.593Z,29.30
2024-02-29T01:42:25.155Z,38.10
2024-02-29T01:44:58.714Z,34.60
2024-02-29T01:47:29.926Z,37.00
2024-02-29T01:50:03.570Z,37.50
2024-02-29T01:52:38.282Z,36.10
2024-02-29T01:55:11.178Z,39.20
2024-02-29T01:57:42.492Z,34.40
2024-02-29T02:00:16.994Z,40.00
2024-02-29T02:02:47.817Z,38.10
2024-02-29T02:05:18.685Z,38.80
2024-02-29T02:07:50.617Z,40.20
2024-02-29T02:10:22.108Z,38.40
2024-02-29T02:12:53.308Z,36.10
2024-02-29T02:15:24.215Z,37.90
2024-02-29T02:17:54.929Z,38.20
2024-02-29T02:20:25.704Z,39.10
2024-02-29T02:22:57.996Z,42.20
2024-02-29T02:25:28.673Z,39.40
2024-02-29T02:27:59.162Z,45.20
2024-02-29T02:30:29.872Z,38.70
2024-02-29T02:33:00.812Z,38.70
2024-02-29T02:35:33.899Z,35.80
2024-02-29T02:38:05.501Z,36.50
2024-02-29T02:40:36.370Z,35.10
2024-02-29T02:43:07.385Z,35.10
2024-02-29T02:45:38.192Z,35.10
2024-02-29T02:48:10.469Z,36.70
2024-02-29T02:50:41.166Z,35.40
2024-02-29T02:53:11.771Z,42.60
2024-02-29T02:55:42.552Z,40.00
2024-02-29T02:58:13.473Z,36.50
2024-02-29T03:00:44.483Z,32.70
2024-02-29T03:03:15.353Z,34.60
2024-02-29T03:05:46.449Z,35.10
2024-02-29T03:08:17.048Z,30.90
2024-02-29T03:10:47.663Z,33.30
2024-02-29T03:13:18.324Z,31.60
2024-02-29T03:15:48.976Z,37.00
2024-02-29T03:18:19.521Z,33.20
2024-02-29T03:20:50.393Z,32.10
2024-02-29T03:23:21.063Z,34.40
2024-02-29T03:25:51.859Z,32.30
2024-02-29T03:28:23.073Z,36.50
2024-02-29T03:30:55.756Z,35.30
2024-02-29T03:33:26.285Z,32.60
2024-02-29T03:35:56.827Z,32.40
2024-02-29T03:38:27.901Z,35.30
2024-02-29T03:40:59.318Z,32.70
2024-02-29T03:43:30.747Z,36.20
2024-02-29T03:46:01.563Z,42.70
2024-02-29T03:48:32.304Z,40.90
2024-02-29T03:51:03.093Z,36.70
2024-02-29T03:53:33.796Z,37.60
2024-02-29T03:56:04.960Z,39.80
2024-02-29T03:58:35.954Z,39.20
2024-02-29T04:01:11.544Z,36.20
2024-02-29T04:03:42.878Z,38.10
2024-02-29T04:06:13.416Z,37.40
2024-02-29T04:08:44.184Z,40.20
2024-02-29T04:11:14.959Z,50.00
2024-02-29T04:13:45.722Z,43.70
2024-02-29T04:16:17.712Z,46.20
2024-02-29T04:18:48.355Z,43.20
2024-02-29T04:21:19.280Z,42.10
2024-02-29T04:23:49.896Z,41.60
2024-02-29T04:26:20.739Z,52.70
2024-02-29T04:28:51.862Z,45.90
2024-02-29T04:31:22.747Z,44.40
2024-02-29T04:33:53.487Z,41.30
2024-02-29T04:36:24.170Z,41.70
2024-02-29T04:38:54.906Z,38.00
2024-02-29T04:41:25.455Z,47.70
2024-02-29T04:43:56.477Z,43.10
2024-02-29T04:46:27.350Z,39.70
2024-02-29T04:48:58.208Z,39.50
2024-02-29T04:51:28.804Z,38.50
2024-02-29T04:53:59.822Z,40.10
2024-02-29T04:56:32.491Z,38.20
2024-02-29T04:59:04.989Z,40.40
2024-02-29T05:01:35.774Z,43.00
2024-02-29T05:04:06.574Z,38.50
2024-02-29T05:06:37.292Z,41.90
2024-02-29T05:09:07.924Z,43.60
2024-02-29T05:11:39.889Z,40.70
2024-02-29T05:14:10.832Z,40.80
2024-02-29T05:16:41.545Z,46.40
2024-02-29T05:19:12.832Z,45.00
2024-02-29T05:21:45.597Z,45.40
2024-02-29T05:24:16.321Z,44.30
2024-02-29T05:26:48.024Z,43.10
2024-02-29T05:29:18.689Z,52.40
2024-02-29T05:31:53.295Z,49.40
2024-02-29T05:34:24.415Z,45.20
2024-02-29T05:36:55.250Z,45.20
2024-02-29T05:39:26.019Z,48.90
2024-02-29T05:41:57.962Z,47.00
2024-02-29T05:44:30.175Z,45.30
2024-02-29T05:47:01.236Z,49.80
2024-02-29T05:49:32.172Z,52.20
2024-02-29T05:52:03.128Z,47.40
2024-02-29T05:54:34.057Z,49.50
2024-02-29T05:57:07.270Z,54.20
2024-02-29T05:59:38.022Z,55.30
2024-02-29T06:02:10.873Z,50.80
2024-02-29T06:04:41.725Z,47.60
2024-02-29T06:07:12.516Z,53.20
2024-02-29T06:09:44.186Z,47.80
2024-02-29T06:12:15.616Z,52.10
2024-02-29T06:14:47.239Z,51.50
2024-02-29T06:17:17.958Z,55.60
2024-02-29T06:19:49.649Z,53.20
2024-02-29T06:22:23.252Z,52.90
2024-02-29T06:24:54.062Z,59.80
2024-02-29T06:27:25.563Z,61.00
2024-02-29T06:29:55.988Z,54.30
2024-02-29T06:32:26.467Z,60.30
2024-02-29T06:34:57.052Z,53.10
2024-02-29T06:37:27.821Z,55.70
2024-02-29T06:39:58.892Z,57.90
2024-02-29T06:42:29.331Z,45.00
2024-02-29T06:45:00.282Z,48.80
2024-02-29T06:47:31.657Z,54.70
2024-02-29T06:50:03.401Z,50.20
2024-02-29T06:52:33.863Z,93.60
2024-02-29T06:55:07.516Z,55.30
2024-02-29T06:57:39.174Z,49.00
2024-02-29T07:00:13.563Z,46.60
2024-02-29T07:02:44.169Z,43.00
2024-02-29T07:05:15.164Z,47.10
2024-02-29T07:07:46.260Z,45.10
2024-02-29T07:10:17.377Z,43.60
2024-02-29T07:12:48.405Z,46.20
2024-02-29T07:15:19.421Z,40.00
2024-02-29T07:17:50.635Z,40.60
2024-02-29T07:20:21.704Z,40.80
2024-02-29T07:22:53.167Z,40.10
2024-02-29T07:25:23.902Z,36.60
2024-02-29T07:27:55.454Z,56.50
2024-02-29T07:30:27.592Z,41.00
2024-02-29T07:32:59.079Z,39.60
2024-02-29T07:35:31.691Z,40.20
2024-02-29T07:38:04.013Z,42.80
2024-02-29T07:40:34.870Z,45.30
2024-02-29T07:43:06.657Z,40.20
2024-02-29T07:45:37.541Z,40.20
2024-02-29T07:48:09.310Z,42.50
2024-02-29T07:50:40.394Z,42.60
2024-02-29T07:53:11.176Z,190.40
2024-02-29T07:55:42.110Z,49.40
2024-02-29T07:58:13.012Z,51.50
2024-02-29T08:00:43.876Z,46.40
2024-02-29T08:03:14.970Z,46.30
2024-02-29T08:05:47.209Z,45.00
2024-02-29T08:08:18.206Z,40.30
2024-02-29T08:10:49.007Z,43.50
2024-02-29T08:13:21.375Z,41.20
2024-02-29T08:15:52.466Z,44.40
2024-02-29T08:18:23.213Z,38.60
2024-02-29T08:20:53.896Z,39.60
2024-02-29T08:23:24.797Z,44.50
2024-02-29T08:25:55.310Z,36.20
2024-02-29T08:28:25.893Z,38.30
2024-02-29T08:30:57.033Z,42.00
2024-02-29T08:33:27.621Z,44.10
2024-02-29T08:35:58.419Z,44.20
2024-02-29T08:38:29.061Z,41.00
2024-02-29T08:41:00.042Z,43.40
2024-02-29T08:43:30.605Z,43.70
2024-02-29T08:46:01.171Z,46.10
2024-02-29T08:48:31.912Z,41.80
2024-02-29T08:51:02.904Z,48.50
2024-02-29T08:53:33.449Z,45.50
2024-02-29T08:56:04.508Z,48.80
2024-02-29T08:58:35.022Z,40.20
2024-02-29T09:01:05.934Z,48.80
2024-02-29T09:03:36.572Z,44.60
2024-02-29T09:06:07.733Z,48.50
2024-02-29T09:08:38.472Z,40.60
2024-02-29T09:11:09.100Z,46.60
2024-02-29T09:13:39.637Z,45.80
2024-02-29T09:16:10.908Z,40.20
2024-02-29T09:18:41.669Z,37.60
2024-02-29T09:21:12.227Z,42.20
2024-02-29T09:23:42.845Z,41.10
2024-02-29T09:26:17.354Z,43.00
2024-02-29T09:28:48.589Z,41.70
2024-02-29T09:31:20.546Z,44.10
2024-02-29T09:33:54.188Z,40.30
2024-02-29T09:36:25.486Z,37.60
2024-02-29T09:38:56.060Z,37.10
2024-02-29T09:41:41.392Z,35.40
2024-02-29T09:44:21.345Z,36.50
2024-02-29T09:46:52.835Z,38.40
2024-02-29T09:49:23.350Z,41.50
2024-02-29T09:51:54.284Z,37.00
2024-02-29T09:54:26.944Z,40.20
2024-02-29T09:56:57.954Z,32.90
2024-02-29T09:59:31.467Z,36.80
2024-02-29T10:02:04.822Z,37.30
2024-02-29T10:04:38.434Z,35.70
2024-02-29T10:07:10.110Z,36.90
2024-02-29T10:09:41.082Z,38.20
2024-02-29T10:12:17.923Z,91.50
2024-02-29T10:14:58.295Z,44.30
2024-02-29T10:17:32.712Z,42.00
2024-02-29T10:20:04.529Z,34.00
2024-02-29T10:22:34.825Z,45.10
2024-02-29T10:25:10.868Z,38.80
2024-02-29T10:27:41.772Z,40.80
2024-02-29T10:30:16.107Z,37.00
2024-02-29T10:32:48.204Z,43.50
2024-02-29T10:35:23.447Z,37.90
2024-02-29T10:37:56.294Z,44.20
2024-02-29T10:40:27.227Z,40.00
2024-02-29T10:43:01.648Z,43.70
2024-02-29T10:45:35.598Z,41.40
2024-02-29T10:48:16.875Z,44.80
2024-02-29T10:51:04.244Z,41.20
2024-02-29T10:53:48.872Z,42.50
2024-02-29T10:56:24.675Z,44.90
2024-02-29T10:59:04.120Z,42.00
2024-02-29T11:01:36.780Z,43.80
2024-02-29T11:04:08.322Z,45.90
2024-02-29T11:06:43.300Z,46.70
2024-02-29T11:09:15.915Z,46.80
2024-02-29T11:11:47.900Z,48.00
2024-02-29T11:14:19.708Z,44.70
2024-02-29T11:16:50.176Z,49.10
2024-02-29T11:19:21.072Z,47.10
2024-02-29T11:21:51.742Z,41.60
2024-02-29T11:24:23.922Z,48.90
2024-02-29T11:26:58.370Z,48.10
2024-02-29T11:29:32.398Z,50.80
2024-02-29T11:32:05.958Z,44.90
2024-02-29T11:34:38.061Z,43.90
2024-02-29T11:37:10.187Z,47.40
2024-02-29T11:39:41.567Z,48.90
2024-02-29T11:42:14.702Z,44.80
2024-02-29T11:44:55.498Z,45.10
2024-02-29T11:47:28.359Z,45.90
2024-02-29T11:50:02.596Z,50.00
2024-02-29T11:52:33.387Z,52.90
2024-02-29T11:55:04.608Z,53.80
2024-02-29T11:57:36.790Z,52.10
2024-02-29T12:00:10.677Z,55.00
2024-02-29T12:02:44.604Z,52.60
2024-02-29T12:05:17.799Z,55.00
2024-02-29T12:07:49.834Z,43.70
2024-02-29T12:10:21.797Z,45.00
2024-02-29T12:12:52.297Z,38.70
2024-02-29T12:15:22.888Z,43.10
2024-02-29T12:17:53.828Z,51.00
2024-02-29T12:20:25.987Z,50.70
2024-02-29T12:23:01.029Z,49.20
2024-02-29T12:25:31.586Z,51.60
2024-02-29T12:28:03.334Z,53.30
2024-02-29T12:30:35.399Z,49.70
2024-02-29T12:33:06.899Z,41.30
2024-02-29T12:35:37.300Z,46.90
2024-02-29T12:38:14.071Z,44.90
2024-02-29T12:40:46.425Z,43.50
2024-02-29T12:43:17.947Z,44.60
2024-02-29T12:45:49.090Z,42.70
2024-02-29T12:48:19.601Z,43.20
2024-02-29T12:50:51.160Z,40.30
2024-02-29T12:53:21.755Z,46.00
2024-02-29T12:55:53.047Z,46.20
2024-02-29T12:58:23.762Z,44.60
2024-02-29T13:00:54.468Z,47.10
2024-02-29T13:03:24.988Z,43.20
2024-02-29T13:05:56.429Z,43.10
2024-02-29T13:08:27.029Z,49.40
2024-02-29T13:10:57.281Z,48.20
2024-02-29T13:13:27.555Z,45.10
2024-02-29T13:15:58.529Z,46.80
2024-02-29T13:18:31.192Z,44.40
2024-02-29T13:43:00.235Z,45.10
2024-02-29T13:45:38.550Z,48.40
2024-02-29T13:48:10.023Z,45.00
2024-02-29T13:50:42.741Z,48.00
2024-02-29T13:53:13.026Z,49.40
2024-02-29T13:55:45.834Z,50.50
2024-02-29T13:58:17.965Z,48.80
2024-02-29T14:00:48.525Z,46.70
2024-02-29T14:03:19.171Z,49.90
2024-02-29T14:05:50.104Z,53.50
2024-02-29T14:08:20.844Z,52.70
2024-02-29T14:10:51.229Z,53.40
2024-02-29T14:13:21.785Z,53.70
2024-02-29T14:15:52.271Z,59.80
2024-02-29T14:18:22.793Z,54.00
2024-02-29T14:20:53.286Z,55.00
2024-02-29T14:23:24.109Z,41.70
2024-02-29T14:25:54.699Z,50.80
2024-02-29T14:28:25.692Z,55.70
2024-02-29T14:30:56.364Z,54.00
2024-02-29T14:33:26.770Z,51.80
2024-02-29T14:35:58.684Z,50.60
2024-02-29T14:38:29.391Z,60.60
2024-02-29T14:40:59.736Z,57.50
2024-02-29T14:43:30.328Z,52.70
2024-02-29T14:46:02.224Z,51.90
2024-02-29T14:48:35.118Z,57.50
2024-02-29T14:51:05.836Z,51.70
2024-02-29T14:53:36.135Z,56.10
2024-02-29T14:56:07.338Z,53.70
2024-02-29T14:58:37.990Z,57.80
2024-02-29T15:01:08.449Z,64.50
2024-02-29T15:03:39.326Z,61.80
2024-02-29T15:06:10.010Z,57.70
2024-02-29T15:08:40.947Z,55.20
2024-02-29T15:11:11.531Z,57.40
2024-02-29T15:13:41.837Z,60.60
2024-02-29T15:16:13.281Z,55.30
2024-02-29T15:18:43.838Z,48.60
2024-02-29T15:21:14.189Z,47.00
2024-02-29T15:23:45.269Z,50.80
2024-02-29T15:26:16.149Z,60.60
2024-02-29T15:28:49.234Z,52.20
2024-02-29T15:31:20.248Z,51.30
2024-02-29T15:33:50.860Z,59.50
2024-02-29T15:36:21.499Z,50.80
2024-02-29T15:38:52.098Z,52.90
2024-02-29T15:41:22.716Z,54.80
2024-02-29T15:43:53.626Z,54.40
2024-02-29T15:46:24.382Z,56.40
2024-02-29T15:48:55.363Z,61.30
2024-02-29T15:51:25.909Z,56.60
2024-02-29T15:53:56.283Z,57.40
2024-02-29T15:56:26.908Z,53.60
2024-02-29T15:58:57.847Z,60.70
2024-02-29T16:01:29.204Z,55.80
2024-02-29T16:03:59.991Z,60.20
2024-02-29T16:06:30.357Z,58.50
2024-02-29T16:09:00.926Z,62.50
2024-02-29T16:11:31.496Z,64.60
2024-02-29T16:14:01.964Z,61.10
2024-02-29T16:16:32.544Z,70.70
2024-02-29T16:19:03.780Z,64.80
2024-02-29T16:21:34.191Z,69.30
2024-02-29T16:24:05.726Z,74.10
2024-02-29T16:26:36.586Z,68.70
2024-02-29T16:29:07.109Z,66.30
2024-02-29T16:31:37.540Z,69.70
2024-02-29T16:34:08.601Z,71.40
2024-02-29T16:36:39.173Z,65.70
2024-02-29T16:39:09.784Z,66.90
2024-02-29T16:41:40.702Z,69.00
2024-02-29T16:44:12.153Z,65.70
2024-02-29T16:46:44.891Z,66.00
2024-02-29T16:49:15.460Z,64.30
2024-02-29T16:51:45.833Z,55.00
2024-02-29T16:54:16.380Z,64.00
2024-02-29T16:56:47.132Z,66.30
2024-02-29T16:59:17.522Z,58.00
2024-02-29T17:01:47.938Z,69.70
2024-02-29T17:04:18.873Z,71.40
2024-02-29T17:06:49.699Z,65.90
2024-02-29T17:09:20.410Z,64.00
2024-02-29T17:11:51.164Z,68.40
2024-02-29T17:14:21.482Z,66.60
2024-02-29T17:16:52.594Z,72.40
2024-02-29T17:19:23.470Z,72.10
2024-02-29T17:21:54.161Z,77.60
2024-02-29T17:24:25.416Z,70.50
2024-02-29T17:26:56.161Z,78.90
2024-02-29T17:29:27.168Z,84.00
2024-02-29T17:31:57.837Z,71.40
2024-02-29T17:34:28.438Z,82.50
2024-02-29T17:36:59.402Z,78.80
2024-02-29T17:39:30.042Z,78.20
2024-02-29T17:42:00.732Z,79.00
2024-02-29T17:44:31.582Z,81.70
2024-02-29T17:47:02.269Z,71.00
2024-02-29T17:49:33.184Z,78.70
2024-02-29T17:52:04.598Z,76.30
2024-02-29T17:54:35.499Z,84.10
2024-02-29T17:57:07.467Z,84.20
2024-02-29T17:59:39.560Z,77.70
2024-02-29T18:02:11.032Z,81.40
2024-02-29T18:04:41.946Z,78.80
2024-02-29T18:07:13.211Z,80.60
2024-02-29T18:09:44.146Z,77.10
2024-02-29T18:12:15.049Z,76.10
2024-02-29T18:14:45.684Z,77.10
2024-02-29T18:17:16.769Z,67.80
2024-02-29T18:19:47.618Z,72.80
2024-02-29T18:22:18.885Z,74.20
2024-02-29T18:24:50.065Z,69.00
2024-02-29T18:27:20.827Z,67.50
2024-02-29T18:29:51.649Z,77.40
2024-02-29T18:32:22.318Z,79.00
2024-02-29T18:34:53.079Z,81.00
2024-02-29T18:37:25.419Z,84.20
2024-02-29T18:39:56.668Z,73.80
2024-02-29T18:42:29.084Z,68.50
2024-02-29T18:45:00.996Z,66.70
2024-02-29T18:47:31.807Z,77.50
2024-02-29T18:50:02.419Z,67.60
2024-02-29T18:52:33.113Z,77.30
2024-02-29T18:55:04.384Z,75.70
2024-02-29T18:57:34.764Z,75.50
2024-02-29T19:00:07.286Z,72.50
2024-02-29T19:02:38.095Z,68.70
2024-02-29T19:05:10.662Z,77.10
2024-02-29T19:07:41.353Z,65.60
2024-02-29T19:10:14.774Z,66.80
2024-02-29T19:12:45.394Z,61.90
2024-02-29T19:15:16.407Z,71.30
2024-02-29T19:17:47.003Z,72.10
2024-02-29T19:20:17.838Z,72.80
2024-02-29T19:22:51.786Z,67.60
2024-02-29T19:25:22.782Z,73.20
2024-02-29T19:27:53.393Z,64.30
2024-02-29T19:30:26.146Z,62.80
2024-02-29T19:32:56.805Z,62.70
2024-02-29T19:35:28.550Z,67.70
2024-02-29T19:37:59.000Z,68.70
2024-02-29T19:40:29.887Z,63.90
2024-02-29T19:43:00.723Z,65.90
2024-02-29T19:45:31.471Z,59.10
2024-02-29T19:48:04.618Z,58.40
2024-02-29T19:50:35.711Z,51.60
2024-02-29T19:53:07.032Z,48.80
2024-02-29T19:55:40.852Z,47.50
2024-02-29T19:58:13.267Z,47.20
2024-02-29T20:00:47.615Z,45.30
2024-02-29T20:03:18.881Z,42.60
2024-02-29T20:05:49.508Z,39.50
2024-02-29T20:08:20.940Z,38.90
2024-02-29T20:10:51.879Z,40.30
2024-02-29T20:13:23.221Z,43.00
2024-02-29T20:15:54.077Z,50.20
2024-02-29T20:18:27.712Z,49.30
2024-02-29T20:20:58.717Z,50.90
2024-02-29T20:23:29.491Z,60.90
2024-02-29T20:26:01.045Z,72.20
2024-02-29T20:28:32.102Z,69.60
2024-02-29T20:31:05.323Z,71.80
2024-02-29T20:33:36.538Z,68.80
2024-02-29T20:36:10.316Z,80.50
2024-02-29T20:38:42.079Z,71.40
2024-02-29T20:41:13.250Z,79.40
2024-02-29T20:43:44.533Z,85.10
2024-02-29T20:46:17.220Z,79.70
2024-02-29T20:48:48.197Z,83.10
2024-02-29T20:51:19.017Z,87.40
2024-02-29T20:53:49.940Z,73.50
2024-02-29T20:56:20.700Z,75.90
2024-02-29T20:58:51.637Z,70.10
2024-02-29T21:01:22.503Z,74.90
2024-02-29T21:03:53.006Z,77.60
2024-02-29T21:06:23.882Z,74.30
2024-02-29T21:08:55.493Z,71.40
2024-02-29T21:11:26.276Z,84.90
2024-02-29T21:13:56.953Z,69.80
2024-02-29T21:16:27.301Z,67.90
2024-02-29T21:18:58.470Z,68.00
2024-02-29T21:21:29.938Z,68.50
2024-02-29T21:24:00.747Z,63.60
2024-02-29T21:26:31.536Z,65.10
2024-02-29T21:29:03.522Z,63.20
2024-02-29T21:31:34.646Z,64.40
2024-02-29T21:34:08.817Z,77.40
2024-02-29T21:36:39.705Z,74.10
2024-02-29T21:39:11.015Z,68.30
2024-02-29T21:41:41.811Z,73.30
2024-02-29T21:44:12.822Z,69.90
2024-02-29T21:46:43.476Z,73.20
2024-02-29T21:49:14.392Z,74.70
2024-02-29T21:51:45.184Z,74.80
2024-02-29T21:54:17.083Z,72.60
2024-02-29T21:56:48.050Z,71.40
2024-02-29T21:59:19.763Z,55.60
2024-02-29T22:01:50.988Z,74.30
2024-02-29T22:04:21.525Z,75.00
2024-02-29T22:06:52.517Z,73.40
2024-02-29T22:09:24.365Z,81.40
2024-02-29T22:11:56.362Z,77.20
2024-02-29T22:14:27.161Z,65.00
2024-02-29T22:16:58.139Z,72.40
2024-02-29T22:19:28.980Z,71.30
2024-02-29T22:22:01.225Z,69.30
2024-02-29T22:24:31.947Z,71.10
2024-02-29T22:27:02.768Z,70.60
2024-02-29T22:29:33.431Z,68.90
2024-02-29T22:32:05.401Z,78.50
2024-02-29T22:34:36.598Z,73.50
2024-02-29T22:37:08.074Z,56.50
2024-02-29T22:39:43.232Z,76.20
2024-02-29T22:42:14.048Z,82.00
2024-02-29T22:44:44.497Z,81.10
2024-02-29T22:47:15.437Z,85.10
2024-02-29T22:49:45.888Z,78.50
2024-02-29T22:52:16.593Z,78.50
2024-02-29T22:54:47.193Z,79.00
2024-02-29T22:57:17.772Z,69.30
2024-02-29T22:59:48.361Z,77.30
2024-02-29T23:02:19.085Z,84.20
2024-02-29T23:04:49.776Z,82.10
2024-02-29T23:07:20.436Z,77.70
2024-02-29T23:09:51.645Z,83.00
2024-02-29T23:12:22.330Z,77.50
2024-02-29T23:14:52.860Z,78.40
2024-02-29T23:17:23.447Z,76.70
2024-02-29T23:19:56.242Z,88.60
2024-02-29T23:22:27.039Z,81.30
2024-02-29T23:24:57.760Z,81.70
2024-02-29T23:27:28.438Z,89.80
2024-02-29T23:29:58.862Z,97.90
2024-02-29T23:32:29.064Z,83.90
2024-02-29T23:34:59.307Z,85.40
2024-02-29T23:37:29.681Z,77.20
2024-02-29T23:40:00.594Z,87.80
2024-02-29T23:42:31.154Z,80.90
2024-02-29T23:45:02.355Z,89.00
2024-02-29T23:47:32.638Z,85.40
2024-02-29T23:50:03.256Z,85.60
2024-02-29T23:52:33.562Z,87.50
2024-02-29T23:55:05.407Z,90.30
2024-02-29T23:57:36.113Z,84.60
